Time;durP1;ratioP1;P1;durP2;ratioP2;P2;SDS_P1;SDS_P2;PMS_P1;PMS_P2;Temp;Humidity;BMP_temperature;BMP_pressure;BME280_temperature;BME280_humidity;BME280_pressure;Samples;Min_cycle;Max_cycle;Signal;HPM_P1;HPM_P2
2022/12/09 00:01:55;;;;;;;3.35;1.80;;;;;;;18.04;43.74;100636.22;5045739;28;20025;-64
2022/12/09 00:04:20;;;;;;;2.03;1.77;;;;;;;18.04;43.65;100634.38;5045112;28;20368;-63
2022/12/09 00:06:45;;;;;;;1.85;1.55;;;;;;;18.03;43.89;100632.72;5045510;28;20037;-63
2022/12/09 00:09:13;;;;;;;2.20;1.80;;;;;;;18.00;43.65;100630.34;5044954;28;20029;-63
2022/12/09 00:11:39;;;;;;;4.05;1.80;;;;;;;17.83;43.68;100596.41;5044615;28;20030;-64
2022/12/09 00:14:04;;;;;;;1.67;1.58;;;;;;;18.01;43.60;100631.19;5043757;28;20025;-64
2022/12/09 00:16:29;;;;;;;2.45;1.60;;;;;;;18.01;43.82;100620.44;5044950;28;20036;-63
2022/12/09 00:18:55;;;;;;;1.67;1.58;;;;;;;18.00;43.72;100627.66;5045091;28;20047;-63
2022/12/09 00:21:29;;;;;;;2.10;1.80;;;;;;;17.97;43.62;100623.47;5044771;28;20048;-63
2022/12/09 00:23:55;;;;;;;1.70;1.60;;;;;;;17.97;43.68;100625.31;5044335;28;20029;-63
2022/12/09 00:26:22;;;;;;;1.88;1.65;;;;;;;17.98;43.60;100617.06;5045170;28;20028;-63
2022/12/09 00:28:48;;;;;;;2.70;1.83;;;;;;;17.99;43.54;100615.22;5045142;28;20033;-64
2022/12/09 00:31:16;;;;;;;2.03;1.52;;;;;;;17.98;43.83;100618.94;5044968;28;20025;-63
2022/12/09 00:33:41;;;;;;;1.60;1.50;;;;;;;17.98;43.81;100618.94;5044529;28;20063;-64
2022/12/09 00:36:13;;;;;;;1.65;1.50;;;;;;;17.91;43.61;100602.63;5044981;28;20057;-64
2022/12/09 00:38:38;;;;;;;2.33;2.13;;;;;;;17.97;43.86;100609.19;5043458;28;20093;-64
2022/12/09 00:41:04;;;;;;;1.50;1.40;;;;;;;17.96;43.53;100619.09;5044999;28;20033;-64
2022/12/09 00:43:29;;;;;;;4.07;2.10;;;;;;;17.97;43.79;100615.41;5043835;28;20025;-63
2022/12/09 00:45:55;;;;;;;2.00;1.67;;;;;;;17.95;43.58;100609.34;5044384;28;20029;-64
2022/12/09 00:48:20;;;;;;;2.47;1.90;;;;;;;17.93;43.71;100613.22;5044928;28;20049;-64
2022/12/09 00:50:45;;;;;;;1.83;1.73;;;;;;;17.96;43.65;100621.78;5044926;28;20061;-64
2022/12/09 00:53:11;;;;;;;2.05;1.67;;;;;;;17.87;43.81;100609.34;5044587;28;20041;-63
2022/12/09 00:55:36;;;;;;;1.63;1.52;;;;;;;17.95;43.43;100613.88;5044672;28;20025;-64
2022/12/09 00:58:02;;;;;;;1.88;1.70;;;;;;;17.94;43.64;100614.91;5044172;28;20033;-64
2022/12/09 01:00:27;;;;;;;2.10;1.42;;;;;;;17.92;43.52;100623.13;5024619;28;20033;-64
2022/12/09 01:02:52;;;;;;;2.60;1.90;;;;;;;17.94;43.55;100625.66;5024660;28;20078;-64
2022/12/09 01:05:17;;;;;;;1.70;1.60;;;;;;;17.89;43.83;100622.66;5028344;28;20112;-64
2022/12/09 01:07:43;;;;;;;2.35;1.90;;;;;;;17.91;43.74;100623.28;5044926;28;20076;-64
2022/12/09 01:10:08;;;;;;;2.05;1.63;;;;;;;17.92;43.55;100628.50;5044158;28;20037;-64
2022/12/09 01:12:33;;;;;;;2.63;2.05;;;;;;;17.91;43.85;100626.81;5044031;28;20056;-64
2022/12/09 01:14:59;;;;;;;2.35;1.73;;;;;;;17.90;43.45;100629.69;5044281;28;20048;-64
2022/12/09 01:17:24;;;;;;;1.40;1.30;;;;;;;17.89;43.65;100628.03;5044104;28;20382;-64
2022/12/09 01:19:49;;;;;;;2.45;1.85;;;;;;;17.91;43.50;100636.75;5044323;28;20076;-64
2022/12/09 01:22:15;;;;;;;1.70;1.58;;;;;;;17.90;43.47;100635.91;5044568;28;20028;-63
2022/12/09 01:24:40;;;;;;;1.67;1.58;;;;;;;17.90;43.65;100629.69;5044081;28;20053;-63
2022/12/09 01:27:05;;;;;;;2.17;1.75;;;;;;;17.89;43.58;100636.94;5044137;28;20145;-63
2022/12/09 01:29:31;;;;;;;2.03;1.80;;;;;;;17.89;43.58;100636.94;5059704;28;20043;-63
2022/12/09 01:31:56;;;;;;;1.55;1.45;;;;;;;17.90;43.60;100637.75;5045555;28;20099;-64
2022/12/09 01:34:21;;;;;;;1.80;1.70;;;;;;;17.88;43.68;100645.16;5048032;28;20029;-63
2022/12/09 01:36:47;;;;;;;1.98;1.80;;;;;;;17.89;43.32;100636.94;5048324;28;20081;-64
2022/12/09 01:39:12;;;;;;;1.75;1.65;;;;;;;17.81;43.43;100628.03;5047796;28;20021;-64
2022/12/09 01:41:38;;;;;;;2.13;1.75;;;;;;;17.88;43.50;100654.09;5047310;28;20025;-64
2022/12/09 01:44:15;;;;;;;1.63;1.45;;;;;;;17.88;43.57;100650.53;5047898;28;20026;-63
2022/12/09 01:46:41;;;;;;;2.08;1.65;;;;;;;17.88;43.40;100650.53;5047393;28;20017;-64
2022/12/09 01:49:08;;;;;;;1.83;1.65;;;;;;;17.86;43.42;100645.31;5046634;28;20030;-64
2022/12/09 01:51:34;;;;;;;1.70;1.60;;;;;;;17.86;43.46;100650.69;5048116;28;20026;-64
2022/12/09 01:54:00;;;;;;;1.80;1.60;;;;;;;17.85;43.52;100646.34;5046090;28;20041;-64
2022/12/09 01:56:33;;;;;;;1.50;1.40;;;;;;;17.86;43.71;100652.56;5046317;28;20028;-64
2022/12/09 01:59:03;;;;;;;1.85;1.73;;;;;;;17.85;43.53;100646.34;5046405;28;20022;-64
2022/12/09 02:01:28;;;;;;;1.75;1.60;;;;;;;17.76;43.51;100628.53;5047721;28;20543;-64
2022/12/09 02:03:54;;;;;;;1.63;1.52;;;;;;;17.85;43.50;100642.81;5062721;28;20041;-64
2022/12/09 02:06:19;;;;;;;1.73;1.63;;;;;;;17.84;43.39;100644.66;5063030;28;20124;-64
2022/12/09 02:08:45;;;;;;;1.60;1.50;;;;;;;17.84;43.56;100633.91;5047135;28;20032;-64
2022/12/09 02:11:32;;;;;;;2.15;1.60;;;;;;;17.84;43.40;100639.28;5046310;28;20044;-64
2022/12/09 02:14:35;;;;;;;1.70;1.60;;;;;;;17.83;43.55;100637.56;5046868;28;20080;-64
2022/12/09 02:17:16;;;;;;;2.35;2.03;;;;;;;17.84;43.43;100638.41;5046875;28;20047;-64
2022/12/09 02:19:53;;;;;;;1.80;1.70;;;;;;;17.82;43.57;100627.84;5046217;28;20033;-64
2022/12/09 02:22:23;;;;;;;1.67;1.58;;;;;;;17.83;43.46;100628.69;5046301;28;20025;-64
2022/12/09 02:25:08;;;;;;;1.75;1.65;;;;;;;17.82;43.33;100627.84;5045378;28;20025;-64
2022/12/09 02:27:45;;;;;;;1.55;1.45;;;;;;;17.82;43.29;100630.53;5046968;28;20029;-64
2022/12/09 02:30:18;;;;;;;1.70;1.50;;;;;;;17.77;43.57;100610.53;5045965;28;20017;-64
2022/12/09 02:32:51;;;;;;;1.65;1.55;;;;;;;17.79;43.42;100617.41;5047269;28;20026;-64
2022/12/09 02:35:46;;;;;;;1.67;1.58;;;;;;;17.81;43.42;100612.72;5045608;28;20050;-64
2022/12/09 02:38:18;;;;;;;1.60;1.50;;;;;;;17.81;43.54;100611.88;5044506;28;20097;-63
2022/12/09 02:41:02;;;;;;;1.77;1.67;;;;;;;17.81;43.48;100611.88;5045954;28;20394;-63
2022/12/09 02:43:33;;;;;;;1.92;1.80;;;;;;;17.81;43.48;100610.03;5044356;28;20081;-63
2022/12/09 02:45:59;;;;;;;1.73;1.55;;;;;;;17.81;43.48;100614.56;5045630;28;20021;-63
2022/12/09 02:48:29;;;;;;;1.90;1.70;;;;;;;17.80;43.57;100610.19;5046615;28;20060;-63
2022/12/09 02:50:55;;;;;;;1.52;1.42;;;;;;;17.80;43.57;100610.19;5045757;28;20470;-62
2022/12/09 02:53:22;;;;;;;2.30;1.60;;;;;;;17.79;43.56;100609.34;5046540;28;20040;-63
2022/12/09 02:55:48;;;;;;;1.95;1.65;;;;;;;17.81;43.52;100609.19;5045532;28;20490;-62
2022/12/09 02:58:13;;;;;;;1.73;1.52;;;;;;;17.76;43.43;100604.31;5044923;28;20048;-63
2022/12/09 03:00:40;;;;;;;1.50;1.40;;;;;;;17.80;43.57;100605.66;5047047;28;20101;-63
2022/12/09 03:03:09;;;;;;;1.67;1.58;;;;;;;17.80;43.57;100610.19;5062207;28;20025;-63
2022/12/09 03:05:50;;;;;;;2.13;1.90;;;;;;;17.79;43.32;100611.19;5061902;28;20037;-63
2022/12/09 03:09:09;;;;;;;1.90;1.80;;;;;;;17.79;43.61;100612.03;5046403;28;20037;-63
2022/12/09 03:11:35;;;;;;;1.85;1.70;;;;;;;17.74;43.46;100598.25;4984821;28;20034;-63
2022/12/09 03:14:41;;;;;;;1.40;1.30;;;;;;;17.78;43.55;100610.34;4984785;28;20081;-63
2022/12/09 03:17:14;;;;;;;1.80;1.50;;;;;;;17.78;43.53;100604.16;4994262;28;20045;-63
2022/12/09 03:19:44;;;;;;;1.75;1.65;;;;;;;17.77;43.36;100603.31;4988274;28;20136;-63
2022/12/09 03:22:12;;;;;;;2.10;1.85;;;;;;;17.72;43.36;100601.09;5004675;28;20061;-64
2022/12/09 03:24:41;;;;;;;2.15;1.60;;;;;;;17.70;43.48;100589.66;4987551;28;20040;-64
2022/12/09 03:27:09;;;;;;;1.80;1.70;;;;;;;17.78;43.40;100604.16;4987510;28;20034;-64
2022/12/09 03:29:37;;;;;;;1.95;1.70;;;;;;;17.77;43.29;100597.09;5004314;28;20501;-64
2022/12/09 03:32:03;;;;;;;2.05;1.85;;;;;;;17.76;43.37;100598.94;5004245;28;20050;-64
2022/12/09 03:34:32;;;;;;;3.00;1.70;;;;;;;17.78;43.23;100599.59;5003747;28;20345;-62
2022/12/09 03:36:58;;;;;;;2.28;1.80;;;;;;;17.77;43.45;100595.25;4988093;28;20058;-64
2022/12/09 03:39:26;;;;;;;1.85;1.58;;;;;;;17.76;43.37;100588.19;5003866;28;20194;-64
2022/12/09 03:41:57;;;;;;;2.58;1.83;;;;;;;17.76;43.40;100595.41;5003671;28;20026;-63
2022/12/09 03:44:33;;;;;;;1.60;1.50;;;;;;;17.77;43.21;100599.78;4993394;28;20041;-64
2022/12/09 03:46:58;;;;;;;1.80;1.70;;;;;;;17.76;43.32;100593.56;5045339;28;20132;-63
2022/12/09 03:49:24;;;;;;;1.60;1.40;;;;;;;17.77;43.46;100595.25;5045762;28;20029;-64
2022/12/09 03:51:54;;;;;;;2.10;1.90;;;;;;;17.71;43.24;100585.09;5044402;28;20038;-64
2022/12/09 03:54:23;;;;;;;1.60;1.42;;;;;;;17.76;43.17;100593.56;5044022;28;20025;-64
2022/12/09 03:56:52;;;;;;;2.00;1.80;;;;;;;17.77;43.47;100591.72;5043288;28;20053;-63
2022/12/09 03:59:17;;;;;;;1.70;1.60;;;;;;;17.76;43.26;100588.19;5044201;28;20026;-64
2022/12/09 04:01:44;;;;;;;1.88;1.50;;;;;;;17.76;43.18;100593.56;5045689;28;20028;-64
2022/12/09 04:04:09;;;;;;;1.90;1.70;;;;;;;17.76;43.37;100595.41;5043926;28;20059;-64
2022/12/09 04:06:35;;;;;;;1.92;1.73;;;;;;;17.77;43.33;100589.88;5045624;28;20079;-63
2022/12/09 04:09:01;;;;;;;1.75;1.65;;;;;;;17.77;43.43;100597.94;5043853;28;20028;-62
2022/12/09 04:11:26;;;;;;;1.98;1.73;;;;;;;17.75;43.47;100586.50;5045457;28;20139;-63
2022/12/09 04:13:51;;;;;;;1.50;1.40;;;;;;;17.75;43.28;100586.50;5044376;28;20029;-64
2022/12/09 04:16:17;;;;;;;2.10;1.90;;;;;;;17.68;43.09;100580.94;5044669;28;20029;-64
2022/12/09 04:18:42;;;;;;;1.88;1.70;;;;;;;17.75;43.15;100581.09;5045345;28;20052;-64
2022/12/09 04:21:09;;;;;;;1.98;1.77;;;;;;;17.68;43.11;100570.16;5045043;28;20059;-64
2022/12/09 04:23:34;;;;;;;1.77;1.60;;;;;;;17.79;43.33;100589.69;5043627;28;20033;-63
2022/12/09 04:25:59;;;;;;;2.50;1.90;;;;;;;17.77;43.26;100581.78;5045068;28;20033;-64
2022/12/09 04:28:25;;;;;;;3.22;1.85;;;;;;;17.78;43.08;100577.25;5044647;28;20029;-63
2022/12/09 04:30:50;;;;;;;2.30;1.80;;;;;;;17.78;43.36;100579.94;5045382;28;20116;-63
2022/12/09 04:33:15;;;;;;;2.35;1.95;;;;;;;17.77;43.13;100575.59;5044739;28;20033;-63
2022/12/09 04:35:40;;;;;;;1.90;1.70;;;;;;;17.68;43.45;100555.91;5044680;28;20030;-63
2022/12/09 04:38:06;;;;;;;2.40;2.20;;;;;;;17.77;43.37;100571.03;5044931;28;20406;-64
2022/12/09 04:40:31;;;;;;;2.33;2.10;;;;;;;17.74;43.05;100574.06;5044879;28;20113;-64
2022/12/09 04:42:57;;;;;;;2.42;1.90;;;;;;;17.77;43.30;100583.66;5044465;28;20037;-63
2022/12/09 04:45:22;;;;;;;2.33;2.13;;;;;;;17.77;43.38;100578.28;5044058;28;20478;-64
2022/12/09 04:47:48;;;;;;;2.00;1.80;;;;;;;17.76;43.10;100580.13;5044590;28;20080;-63
2022/12/09 04:50:13;;;;;;;2.95;2.10;;;;;;;17.75;43.13;100586.50;5044849;28;20060;-64
2022/12/09 04:52:39;;;;;;;2.72;2.35;;;;;;;17.76;43.39;100585.50;5045147;28;20493;-65
2022/12/09 04:55:05;;;;;;;2.83;1.98;;;;;;;17.76;43.40;100582.81;5044257;28;20075;-65
2022/12/09 04:57:30;;;;;;;1.85;1.65;;;;;;;17.77;43.10;100589.88;5027803;28;20033;-65
2022/12/09 04:59:56;;;;;;;2.22;2.03;;;;;;;17.77;43.24;100586.34;5044557;28;20092;-63
2022/12/09 05:02:22;;;;;;;2.67;2.17;;;;;;;17.76;43.24;100585.50;5044745;28;20068;-64
2022/12/09 05:04:47;;;;;;;2.33;2.00;;;;;;;17.75;43.14;100589.19;5044277;28;20021;-64
2022/12/09 05:07:13;;;;;;;2.30;1.98;;;;;;;17.77;43.33;100589.03;5043466;28;20037;-63
2022/12/09 05:09:38;;;;;;;2.00;1.80;;;;;;;17.76;43.30;100593.56;5044549;28;20033;-64
2022/12/09 05:12:04;;;;;;;2.00;1.80;;;;;;;17.77;43.17;100594.41;5043863;28;20479;-63
2022/12/09 05:14:29;;;;;;;2.10;1.90;;;;;;;17.77;43.18;100591.72;5044095;28;20037;-63
2022/12/09 05:16:54;;;;;;;3.28;2.38;;;;;;;17.78;43.25;100593.38;5043664;28;20052;-63
2022/12/09 05:19:20;;;;;;;2.10;1.90;;;;;;;17.77;43.27;100589.03;5044374;28;20036;-64
2022/12/09 05:21:45;;;;;;;2.10;1.90;;;;;;;17.79;43.02;100592.38;5044530;28;20113;-64
2022/12/09 05:24:10;;;;;;;2.38;2.17;;;;;;;17.77;43.23;100587.16;5043963;28;20045;-63
2022/12/09 05:26:36;;;;;;;2.28;2.08;;;;;;;17.80;43.37;100591.34;5044247;28;20032;-63
2022/12/09 05:29:02;;;;;;;2.20;1.98;;;;;;;17.79;43.13;100587.84;5044050;28;20470;-64
2022/12/09 05:31:27;;;;;;;2.35;2.15;;;;;;;17.80;43.30;100589.53;5044239;28;20082;-64
2022/12/09 05:33:53;;;;;;;2.00;1.80;;;;;;;17.79;43.22;100590.53;5043717;28;20021;-63
2022/12/09 05:36:20;;;;;;;2.83;2.50;;;;;;;17.79;43.44;100590.53;5036817;28;20029;-64
2022/12/09 05:38:46;;;;;;;3.70;2.15;;;;;;;17.73;43.55;100575.88;5043833;28;20021;-63
2022/12/09 05:41:11;;;;;;;2.38;2.17;;;;;;;17.76;43.50;100580.13;5044021;28;20471;-64
2022/12/09 05:43:37;;;;;;;3.60;1.95;;;;;;;17.81;43.65;100579.63;5066021;28;20033;-63
2022/12/09 05:46:04;;;;;;;2.30;2.10;;;;;;;17.80;43.85;100577.91;5029790;28;20038;-63
2022/12/09 05:48:29;;;;;;;2.38;2.03;;;;;;;17.84;43.74;100579.25;5024475;28;20058;-63
2022/12/09 05:51:05;;;;;;;3.13;2.33;;;;;;;17.76;43.72;100569.38;5024553;28;20034;-63
2022/12/09 05:53:31;;;;;;;2.78;1.95;;;;;;;17.84;43.93;100582.81;5031976;28;20156;-63
2022/12/09 05:55:56;;;;;;;2.65;2.45;;;;;;;17.80;43.98;100575.22;5038984;28;20379;-63
2022/12/09 05:58:22;;;;;;;2.85;2.22;;;;;;;17.85;43.92;100580.97;5029093;28;20037;-64
2022/12/09 06:00:47;;;;;;;3.10;2.13;;;;;;;17.88;44.13;100580.59;5043937;28;20037;-63
2022/12/09 06:03:13;;;;;;;2.45;2.25;;;;;;;17.87;44.13;100577.06;5036904;28;20093;-62
2022/12/09 06:05:38;;;;;;;3.15;2.50;;;;;;;17.89;44.15;100576.91;5037128;28;20036;-63
2022/12/09 06:08:04;;;;;;;2.60;2.40;;;;;;;17.89;44.32;100576.91;5041724;28;20029;-63
2022/12/09 06:10:29;;;;;;;2.55;2.22;;;;;;;17.90;44.16;100575.91;5043966;28;20074;-61
2022/12/09 06:12:56;;;;;;;3.05;2.42;;;;;;;17.82;44.19;100555.22;5043505;28;20033;-63
2022/12/09 06:15:21;;;;;;;2.35;2.10;;;;;;;17.89;44.26;100566.16;5042616;28;20022;-63
2022/12/09 06:17:47;;;;;;;3.55;2.22;;;;;;;17.85;44.04;100557.59;5043869;28;20032;-63
2022/12/09 06:20:12;;;;;;;3.60;2.15;;;;;;;17.91;43.83;100566.81;5040074;28;20033;-62
2022/12/09 06:22:37;;;;;;;2.15;1.95;;;;;;;17.91;44.18;100570.34;5044894;28;20032;-62
2022/12/09 06:25:03;;;;;;;2.33;2.13;;;;;;;17.92;43.97;100572.00;5035681;28;20407;-63
2022/12/09 06:27:28;;;;;;;2.83;2.50;;;;;;;17.92;44.10;100568.50;5040350;28;20032;-63
2022/12/09 06:29:53;;;;;;;3.00;2.58;;;;;;;17.93;44.03;100572.88;5040580;28;20076;-64
2022/12/09 06:32:18;;;;;;;3.08;2.35;;;;;;;17.93;44.14;100575.56;5037243;28;20049;-63
2022/12/09 06:34:44;;;;;;;2.58;2.28;;;;;;;17.89;44.28;100566.16;5046955;28;20040;-63
2022/12/09 06:37:09;;;;;;;2.72;2.00;;;;;;;17.92;44.27;100582.78;5046993;28;20492;-63
2022/12/09 06:39:34;;;;;;;2.20;1.95;;;;;;;17.86;44.26;100570.03;5047198;28;20087;-63
2022/12/09 06:41:59;;;;;;;3.00;2.33;;;;;;;17.93;44.07;100576.41;5046488;28;20029;-63
2022/12/09 06:44:25;;;;;;;2.38;2.13;;;;;;;17.94;44.25;100583.47;5046870;28;20022;-63
2022/12/09 06:46:50;;;;;;;3.70;2.42;;;;;;;17.94;44.29;100578.06;5046292;28;20049;-63
2022/12/09 06:49:16;;;;;;;2.55;2.33;;;;;;;17.96;44.07;100583.28;5045511;28;20390;-63
2022/12/09 06:51:41;;;;;;;2.60;2.22;;;;;;;17.95;44.20;100578.91;5046600;28;20033;-63
2022/12/09 06:54:08;;;;;;;3.15;2.30;;;;;;;17.96;43.91;100580.59;5045980;28;20041;-63
2022/12/09 06:56:33;;;;;;;5.90;3.28;;;;;;;17.96;43.89;100588.66;5046878;28;20041;-63
2022/12/09 06:58:59;;;;;;;4.90;2.70;;;;;;;17.95;43.67;100584.28;5041362;28;20053;-63
2022/12/09 07:01:25;;;;;;;4.65;3.20;;;;;;;17.94;43.80;100579.94;5046567;28;20032;-63
2022/12/09 07:03:52;;;;;;;3.55;3.00;;;;;;;17.94;43.69;100591.53;5045932;28;20025;-63
2022/12/09 07:06:24;;;;;;;5.60;2.90;;;;;;;17.91;43.74;100589.16;5033093;28;20029;-62
2022/12/09 07:08:49;;;;;;;3.80;3.25;;;;;;;17.92;43.87;100585.47;5026106;28;20104;-63
2022/12/09 07:11:14;;;;;;;3.17;2.83;;;;;;;17.92;43.96;100596.22;5026579;28;20034;-63
2022/12/09 07:13:39;;;;;;;4.07;2.92;;;;;;;17.71;43.74;100561.78;5031606;28;20041;-63
2022/12/09 07:16:05;;;;;;;3.47;2.42;;;;;;;17.91;43.89;100589.16;5045828;28;20025;-63
2022/12/09 07:18:30;;;;;;;2.63;2.22;;;;;;;17.90;43.84;100592.88;5046744;28;20409;-62
2022/12/09 07:20:55;;;;;;;2.88;2.55;;;;;;;17.90;43.68;100595.56;5046653;28;20027;-62
2022/12/09 07:23:21;;;;;;;2.95;2.65;;;;;;;17.84;43.72;100581.94;5046215;28;20024;-63
2022/12/09 07:25:55;;;;;;;3.10;2.78;;;;;;;17.91;43.53;100591.84;5046201;28;20029;-63
2022/12/09 07:28:20;;;;;;;3.00;2.28;;;;;;;17.89;43.80;100590.38;5045780;28;20040;-63
2022/12/09 07:30:45;;;;;;;3.75;2.60;;;;;;;17.89;43.67;100588.50;5045826;28;20033;-63
2022/12/09 07:33:11;;;;;;;2.58;2.38;;;;;;;17.91;43.74;100588.34;5045822;28;20035;-62
2022/12/09 07:35:36;;;;;;;2.63;2.42;;;;;;;17.91;43.53;100586.47;5046011;28;20466;-62
2022/12/09 07:38:01;;;;;;;2.60;2.40;;;;;;;17.89;43.76;100593.91;5046130;28;20035;-62
2022/12/09 07:40:26;;;;;;;2.92;2.50;;;;;;;17.90;43.50;100587.50;5045802;28;20029;-62
2022/12/09 07:42:52;;;;;;;3.85;2.63;;;;;;;17.91;43.38;100589.16;5045500;28;20520;-62
2022/12/09 07:45:17;;;;;;;3.70;2.72;;;;;;;17.85;43.45;100581.78;5045019;28;20033;-62
2022/12/09 07:47:42;;;;;;;4.97;2.45;;;;;;;17.94;43.28;100594.22;5045703;28;20037;-63
2022/12/09 07:50:08;;;;;;;3.50;2.20;;;;;;;17.95;43.43;100590.50;5045408;28;20516;-63
2022/12/09 07:52:33;;;;;;;3.28;2.40;;;;;;;17.93;43.48;100592.53;5045916;28;20067;-63
2022/12/09 07:55:00;;;;;;;3.20;2.60;;;;;;;17.96;43.52;100596.72;5045273;28;20060;-62
2022/12/09 07:57:26;;;;;;;2.78;2.58;;;;;;;17.95;43.56;100590.50;5045091;28;20021;-63
2022/12/09 07:59:52;;;;;;;3.17;2.70;;;;;;;17.92;43.38;100577.41;5045094;28;20544;-62
2022/12/09 08:02:17;;;;;;;2.80;2.20;;;;;;;17.98;43.17;100587.50;5045379;28;20014;-63
2022/12/09 08:04:42;;;;;;;2.97;2.60;;;;;;;17.98;43.02;100587.50;5045366;28;20025;-63
2022/12/09 08:07:08;;;;;;;2.40;2.20;;;;;;;18.00;43.10;100590.00;5061157;28;20120;-63
2022/12/09 08:09:33;;;;;;;2.50;2.30;;;;;;;18.00;42.93;100590.00;5045079;28;20036;-62
2022/12/09 08:11:58;;;;;;;2.72;2.42;;;;;;;17.92;43.05;100576.56;5044881;28;20033;-62
2022/12/09 08:14:23;;;;;;;3.05;2.40;;;;;;;18.03;42.70;100595.03;5044757;28;20025;-63
2022/12/09 08:16:49;;;;;;;2.47;2.25;;;;;;;17.99;43.00;100585.63;5060317;28;20030;-63
2022/12/09 08:19:14;;;;;;;2.60;2.10;;;;;;;18.03;42.98;100602.28;5045213;28;20120;-62
2022/12/09 08:21:40;;;;;;;3.10;2.80;;;;;;;18.03;42.81;100596.91;5044743;28;20057;-62
2022/12/09 08:24:06;;;;;;;2.75;2.20;;;;;;;18.03;42.73;100595.03;5045074;28;20025;-62
2022/12/09 08:26:32;;;;;;;2.40;2.20;;;;;;;18.01;43.02;100593.53;5045288;28;20033;-62
2022/12/09 08:28:57;;;;;;;2.78;2.50;;;;;;;18.06;42.87;100602.78;5044659;28;20093;-62
2022/12/09 08:31:24;;;;;;;3.47;2.40;;;;;;;18.07;42.91;100604.47;5045146;28;20389;-62
2022/12/09 08:33:50;;;;;;;3.13;2.20;;;;;;;18.08;42.57;100605.28;5044927;28;20045;-63
2022/12/09 08:36:18;;;;;;;2.20;2.00;;;;;;;18.10;42.61;100608.66;5044898;28;20025;-63
2022/12/09 08:38:43;;;;;;;2.38;2.17;;;;;;;18.09;42.69;100601.59;5044948;28;20095;-63
2022/12/09 08:41:10;;;;;;;2.45;2.25;;;;;;;18.14;42.71;100610.84;5044314;28;20029;-62
2022/12/09 08:43:36;;;;;;;2.83;2.42;;;;;;;18.17;42.42;100609.66;5044261;28;20043;-62
2022/12/09 08:46:02;;;;;;;3.35;2.08;;;;;;;18.15;42.46;100614.38;5044407;28;20040;-63
2022/12/09 08:48:27;;;;;;;2.30;2.10;;;;;;;18.18;42.56;100612.19;5043275;28;20057;-63
2022/12/09 08:50:53;;;;;;;2.63;2.28;;;;;;;18.19;42.36;100615.72;5044336;28;20037;-62
2022/12/09 08:53:18;;;;;;;3.47;2.35;;;;;;;18.20;42.76;100620.91;5044578;28;20056;-62
2022/12/09 08:55:44;;;;;;;2.13;1.85;;;;;;;18.21;42.24;100616.38;5044670;28;20033;-63
2022/12/09 08:58:09;;;;;;;3.03;2.53;;;;;;;18.22;42.41;100615.34;5042222;28;20029;-62
2022/12/09 09:00:34;;;;;;;2.40;2.15;;;;;;;18.22;42.21;100607.28;5039964;28;20061;-63
2022/12/09 09:02:59;;;;;;;3.42;2.28;;;;;;;18.23;42.13;100614.38;5024967;28;20101;-62
2022/12/09 09:05:25;;;;;;;2.85;2.00;;;;;;;18.24;42.31;100618.72;5029344;28;20022;-63
2022/12/09 09:07:50;;;;;;;2.40;2.20;;;;;;;18.25;42.30;100612.31;5044859;28;20052;-63
2022/12/09 09:10:15;;;;;;;2.42;2.20;;;;;;;18.25;42.01;100620.41;5044297;28;20034;-63
2022/12/09 09:12:40;;;;;;;2.67;2.47;;;;;;;18.25;42.21;100617.69;5043924;28;20057;-63
2022/12/09 09:15:06;;;;;;;2.22;2.03;;;;;;;18.24;42.27;100613.34;5043985;28;20105;-63
2022/12/09 09:17:31;;;;;;;2.47;1.95;;;;;;;18.28;42.29;100613.84;5044275;28;20072;-63
2022/12/09 09:19:57;;;;;;;2.25;2.05;;;;;;;18.27;41.96;100618.38;5044481;28;20036;-62
2022/12/09 09:22:22;;;;;;;3.35;2.50;;;;;;;18.29;42.09;100615.50;5043101;28;20029;-62
2022/12/09 09:24:47;;;;;;;2.17;1.98;;;;;;;18.28;42.18;100609.28;5044205;28;20026;-63
2022/12/09 09:27:13;;;;;;;2.33;2.08;;;;;;;18.28;42.12;100612.00;5043966;28;20040;-63
2022/12/09 09:29:38;;;;;;;2.33;2.03;;;;;;;18.30;42.13;100615.34;5044558;28;20075;-63
2022/12/09 09:32:03;;;;;;;2.25;1.98;;;;;;;18.31;42.10;100618.88;5044316;28;20548;-63
2022/12/09 09:34:29;;;;;;;2.08;1.88;;;;;;;18.30;42.13;100618.03;5044138;28;20052;-63
2022/12/09 09:36:54;;;;;;;2.20;2.00;;;;;;;18.30;42.10;100612.63;5044196;28;20029;-62
2022/12/09 09:39:20;;;;;;;2.58;2.22;;;;;;;18.31;42.04;100618.88;5044426;28;20040;-63
2022/12/09 09:41:59;;;;;;;2.35;2.15;;;;;;;18.30;41.87;100609.94;5044177;28;20029;-62
2022/12/09 09:44:32;;;;;;;2.75;2.42;;;;;;;18.31;41.77;100610.78;5042023;28;20026;-62
2022/12/09 09:46:59;;;;;;;2.45;2.10;;;;;;;18.22;42.15;100605.44;5042158;28;20076;-63
2022/12/09 09:49:43;;;;;;;2.65;2.40;;;;;;;18.30;41.90;100615.34;5044186;28;20033;-63
2022/12/09 09:52:16;;;;;;;2.30;2.10;;;;;;;18.30;41.98;100609.94;5042915;28;20036;-62
2022/12/09 09:54:41;;;;;;;3.75;2.60;;;;;;;18.32;41.84;100612.50;5047411;28;20033;-63
2022/12/09 09:57:32;;;;;;;2.95;2.47;;;;;;;18.33;41.57;100612.31;5047108;28;20036;-63
2022/12/09 09:59:57;;;;;;;2.00;1.80;;;;;;;18.32;41.72;100616.03;5014505;28;20022;-62
2022/12/09 10:02:36;;;;;;;2.55;2.17;;;;;;;18.33;41.92;100623.06;5028029;28;20029;-62
2022/12/09 10:05:27;;;;;;;2.28;2.05;;;;;;;18.35;41.68;100620.19;5028917;28;20041;-63
2022/12/09 10:07:57;;;;;;;2.30;1.90;;;;;;;18.35;41.71;100609.44;5047847;28;20022;-63
2022/12/09 10:10:41;;;;;;;3.08;2.00;;;;;;;18.35;41.92;100614.81;5046076;28;20021;-62
2022/12/09 10:13:18;;;;;;;2.65;2.10;;;;;;;18.34;41.65;100607.75;5046185;28;20032;-62
2022/12/09 10:16:12;;;;;;;2.97;2.15;;;;;;;18.33;41.77;100609.63;5046505;28;20112;-63
2022/12/09 10:18:53;;;;;;;2.30;2.10;;;;;;;18.35;41.63;100602.22;5046976;28;20101;-63
2022/12/09 10:21:20;;;;;;;2.10;1.90;;;;;;;18.37;41.94;100607.44;5047578;28;20021;-63
2022/12/09 10:23:46;;;;;;;2.30;2.10;;;;;;;18.37;41.76;100605.56;5056896;28;20028;-63
2022/12/09 10:26:18;;;;;;;2.10;1.80;;;;;;;18.40;41.85;100609.78;5026197;28;20030;-63
2022/12/09 10:28:46;;;;;;;2.55;1.90;;;;;;;18.36;41.71;100601.22;5025991;28;20032;-63
2022/12/09 10:31:12;;;;;;;3.40;2.15;;;;;;;18.38;41.82;100596.47;5059537;28;20041;-63
2022/12/09 10:33:38;;;;;;;2.22;2.00;;;;;;;18.39;41.74;100602.69;5059151;28;20022;-63
2022/12/09 10:36:06;;;;;;;2.10;1.83;;;;;;;18.40;41.49;100604.41;5026302;28;20049;-63
2022/12/09 10:38:35;;;;;;;1.95;1.80;;;;;;;18.40;41.65;100605.22;5027451;28;20057;-63
2022/12/09 10:41:08;;;;;;;2.03;1.83;;;;;;;18.38;41.54;100593.78;5027319;28;20045;-63
2022/12/09 10:46:06;;;;;;;2.67;2.00;;;;;;;18.38;41.69;100596.47;5045507;28;20029;-63
2022/12/09 10:48:42;;;;;;;2.35;2.05;;;;;;;18.36;41.77;100590.44;5048597;28;20069;-63
2022/12/09 10:51:18;;;;;;;1.92;1.73;;;;;;;18.36;41.76;100593.13;5053024;28;20017;-63
2022/12/09 10:53:47;;;;;;;2.55;2.22;;;;;;;18.41;41.69;100601.53;5052856;28;20073;-63
2022/12/09 10:56:25;;;;;;;2.28;1.67;;;;;;;18.43;41.68;100607.56;5051432;28;20034;-63
2022/12/09 10:59:12;;;;;;;2.03;1.85;;;;;;;18.45;41.70;100602.84;5052293;28;20115;-63
2022/12/09 11:01:55;;;;;;;2.20;1.85;;;;;;;18.46;41.32;100598.31;5047357;28;20029;-63
2022/12/09 11:04:29;;;;;;;1.90;1.70;;;;;;;18.47;41.62;100584.66;5045364;28;20085;-63
2022/12/09 11:07:02;;;;;;;2.55;1.80;;;;;;;18.48;41.58;100601.69;5046637;28;20053;-63
2022/12/09 11:09:30;;;;;;;2.63;2.00;;;;;;;18.47;41.40;100595.44;5046598;28;20035;-63
2022/12/09 11:11:56;;;;;;;2.05;1.85;;;;;;;18.49;41.51;100587.19;5046692;28;20032;-62
2022/12/09 11:14:32;;;;;;;2.15;1.83;;;;;;;18.51;41.60;100592.41;5044753;28;20307;-63
2022/12/09 11:17:10;;;;;;;2.28;1.80;;;;;;;18.51;41.19;100595.94;5046322;28;20155;-62
2022/12/09 11:19:36;;;;;;;2.00;1.80;;;;;;;18.53;41.33;100603.84;5062171;28;20018;-63
2022/12/09 11:22:22;;;;;;;2.45;2.08;;;;;;;18.53;41.10;100599.31;5046338;28;20028;-62
2022/12/09 11:24:48;;;;;;;2.60;2.10;;;;;;;18.53;41.18;100596.63;5045908;28;20367;-63
2022/12/09 11:27:24;;;;;;;1.98;1.77;;;;;;;18.54;41.05;100594.75;5044092;28;20049;-63
2022/12/09 11:30:05;;;;;;;2.30;2.10;;;;;;;18.53;41.17;100591.22;5046054;28;20095;-63
2022/12/09 11:32:30;;;;;;;2.33;2.10;;;;;;;18.53;41.37;100588.53;5044825;28;20041;-63